Ravenel, SC

9:57 AM EST on January 28, 2015 (GMT -0500)
3 Miles North of Hwy's 17 & 165 (Hyde Park Rd) | Change Station
CLOSE
Current Station
Personal Weather Station
Location: Ravenel, SC
Elevation: 43 ft
Nearby Weather Stations

Elev 43 ft 32.82 °N, 80.26 °W | Updated 3 seconds ago

Clear
Clear
37.4 °F
Feels Like 30 °F
N
10.7
Wind Variable Wind from NNE
Gusts 12.3 mph

Today
High -- | Low -- °F
--% Chance of Precip.
Yesterday
High -- | Low -- °F
Precip. -- in
7:18 AM 5:49 PM
Waxing Gibbous, 65% visible
Pressure 30.24 in
Visibility 10.0 miles
Clouds Clear
Windchill 30 °F
Dew Point 4 °F
Humidity 24%
Rainfall 0.00 in
Snow Depth Not available.
UV 1 out of 12
Pollen 3.50 out of 12
Air Quality Not available.
Flu Activity Not available.
METAR KCHS 281356Z 02016G22KT 10SM CLR 02/M08 A3024 RMK AO2 SLP239 T00221078

More Conditions Fewer Conditions

Pressure 30.24 in
Visibility 10.0 miles
Clouds Clear
Windchill 30 °F
Dew Point 4 °F
Humidity 24%
Rainfall 0.00 in
Snow Depth Not available.
UV 1 out of 12
Pollen 3.50 out of 12
Air Quality Not available.
Flu Activity Not available.
METAR KCHS 281356Z 02016G22KT 10SM CLR 02/M08 A3024 RMK AO2 SLP239 T00221078

More Conditions Fewer Conditions

10-Day Weather Forecast

Almanac

Astronomy

Jan. 28, 2015 Rise Set
Actual Time
Civil Twilight
Nautical Twilight
Astronomical Twilight
Moon
Length of Visible Light
Length of Day
Tomorrow will be .
, % of the Moon is Illuminated

Today's Extremes

State Highs State Lows

Community

WunderPhotos

Upload Photos

1,791,160 photos uploaded!

WunderBlogs® & News

Nearby

Air Quality

  Air Quality AQ Index Pollutant
Not available.

Snow Depth

Station Depth Elevation

Earthquake Activity

City Distance Mag. Time & Date
Minimum magnitude displayed is 2.5.

Coastal Water Temperatures

Place Temperature

Nearby Weather Stations